Time;durP1;ratioP1;P1;durP2;ratioP2;P2;SDS_P1;SDS_P2;PMS_P1;PMS_P2;Temp;Humidity;BMP_temperature;BMP_pressure;BME280_temperature;BME280_humidity;BME280_pressure;Samples;Min_cycle;Max_cycle;Signal;HPM_P1;HPM_P2
2022/12/02 00:01:37;;;;;;;1.83;1.65;;;;;;;16.65;37.25;102828.38;5035079;28;20021;-94
2022/12/02 00:04:29;;;;;;;2.10;1.90;;;;;;;16.67;37.11;102823.66;5034970;28;20029;-94
2022/12/02 00:06:56;;;;;;;2.08;1.67;;;;;;;16.67;37.05;102825.53;5051083;28;20120;-94
2022/12/02 00:09:31;;;;;;;2.30;2.05;;;;;;;16.61;37.12;102824.34;5051153;28;20028;-94
2022/12/02 00:11:58;;;;;;;2.92;2.20;;;;;;;16.65;37.20;102822.16;5018567;28;20035;-94
2022/12/02 00:14:35;;;;;;;2.25;1.88;;;;;;;16.70;37.17;102833.28;5051074;28;20139;-93
2022/12/02 00:17:03;;;;;;;2.90;2.30;;;;;;;16.67;37.31;102820.13;5034913;28;20055;-94
2022/12/02 00:19:29;;;;;;;2.72;2.08;;;;;;;16.62;37.15;102820.63;5050707;28;20060;-95
2022/12/02 00:21:55;;;;;;;2.47;2.10;;;;;;;16.68;37.26;102833.44;5050533;28;20093;-95
2022/12/02 00:24:20;;;;;;;3.10;2.50;;;;;;;16.64;37.07;102824.00;5052252;28;20029;-94
2022/12/02 00:26:46;;;;;;;3.55;2.42;;;;;;;16.68;37.11;102833.44;5034242;28;20140;-95
2022/12/02 00:29:12;;;;;;;3.63;2.53;;;;;;;16.68;37.10;102828.06;5050884;28;20028;-94
2022/12/02 00:31:37;;;;;;;2.67;2.20;;;;;;;16.71;37.31;102826.84;5051054;28;20025;-95
2022/12/02 00:34:03;;;;;;;2.75;2.35;;;;;;;16.66;37.22;102819.28;5017461;28;20504;-94
2022/12/02 00:36:29;;;;;;;3.30;2.58;;;;;;;16.68;37.11;102828.06;5017625;28;20135;-94
2022/12/02 00:38:55;;;;;;;3.17;2.30;;;;;;;16.66;37.17;102813.88;5051890;28;20070;-94
2022/12/02 00:41:21;;;;;;;3.95;2.63;;;;;;;16.69;37.08;102816.25;5033986;28;20199;-94
2022/12/02 00:46:36;;;;;;;3.92;2.80;;;;;;;16.69;37.17;102818.94;5036858;28;20044;-95
2022/12/02 00:49:08;;;;;;;3.72;2.65;;;;;;;16.66;37.17;102811.19;5051947;28;20488;-94
2022/12/02 00:51:34;;;;;;;4.38;2.72;;;;;;;16.73;37.10;102815.88;5034156;28;20541;-94
2022/12/02 00:54:00;;;;;;;4.18;3.03;;;;;;;16.66;37.15;102802.22;5034121;28;20035;-94
2022/12/02 00:56:25;;;;;;;3.38;2.60;;;;;;;16.67;37.02;102804.75;5050503;28;20052;-95
2022/12/02 00:58:51;;;;;;;4.07;3.22;;;;;;;16.73;37.13;102815.88;5050503;28;20159;-95
2022/12/02 01:01:16;;;;;;;3.72;2.67;;;;;;;16.69;37.16;102813.56;5033728;28;20476;-96
2022/12/02 01:03:42;;;;;;;3.80;2.67;;;;;;;16.69;37.03;102807.28;5050542;28;20039;-95
2022/12/02 01:06:08;;;;;;;3.78;2.90;;;;;;;16.72;36.94;102812.34;5050396;28;20104;-94
2022/12/02 01:08:33;;;;;;;4.90;3.53;;;;;;;16.73;37.07;102805.09;5017463;28;20128;-94
2022/12/02 01:10:59;;;;;;;4.35;3.45;;;;;;;16.70;37.07;102799.03;5017450;28;20373;-94
2022/12/02 01:13:25;;;;;;;4.07;2.80;;;;;;;16.68;37.08;102792.94;5033727;28;20033;-95
2022/12/02 01:15:51;;;;;;;4.05;3.03;;;;;;;16.67;37.09;102793.94;5050616;28;20047;-94
2022/12/02 01:18:17;;;;;;;4.53;3.00;;;;;;;16.69;37.10;102791.09;5050221;28;20484;-95
2022/12/02 01:20:42;;;;;;;4.15;3.00;;;;;;;16.74;36.99;102790.59;5033706;28;20452;-95
2022/12/02 01:23:08;;;;;;;4.95;3.28;;;;;;;16.70;37.01;102777.41;5033662;28;20074;-94
2022/12/02 01:25:37;;;;;;;4.75;3.33;;;;;;;16.70;37.08;102782.81;5033815;28;20498;-94
2022/12/02 01:28:08;;;;;;;4.07;3.05;;;;;;;16.72;37.02;102790.75;5049928;28;20048;-94
2022/12/02 01:30:34;;;;;;;4.45;3.17;;;;;;;16.71;37.04;102780.94;5033245;28;20096;-95
2022/12/02 01:33:06;;;;;;;4.20;3.03;;;;;;;16.69;37.12;102780.28;5049797;28;20035;-93
2022/12/02 01:35:31;;;;;;;4.28;3.17;;;;;;;16.73;36.87;102784.34;5052275;28;20056;-95
2022/12/02 01:37:57;;;;;;;4.70;3.60;;;;;;;16.73;37.10;102776.25;5053798;28;20052;-94
2022/12/02 01:40:23;;;;;;;4.30;3.10;;;;;;;16.66;37.09;102765.28;5055182;28;20459;-94
2022/12/02 01:42:49;;;;;;;5.18;3.38;;;;;;;16.69;37.10;102764.94;5054235;28;20029;-94
2022/12/02 01:45:14;;;;;;;4.35;3.40;;;;;;;16.70;37.00;102766.63;5037364;28;20050;-94
2022/12/02 01:47:40;;;;;;;5.43;3.90;;;;;;;16.69;37.12;102767.66;5020722;28;20025;-95
2022/12/02 01:50:07;;;;;;;5.18;3.65;;;;;;;16.73;37.02;102772.69;5053831;28;20060;-94
2022/12/02 01:52:33;;;;;;;5.15;3.65;;;;;;;16.70;37.01;102765.78;5037348;28;20045;-95
2022/12/02 01:54:59;;;;;;;4.82;3.53;;;;;;;16.74;37.06;102774.38;5053971;28;20100;-93
2022/12/02 01:57:26;;;;;;;4.85;3.38;;;;;;;16.70;36.99;102766.63;5037081;28;20476;-94
2022/12/02 01:59:52;;;;;;;5.28;3.58;;;;;;;16.75;37.07;102770.66;5037503;28;20040;-94
2022/12/02 02:02:43;;;;;;;5.72;3.53;;;;;;;16.71;36.72;102768.31;5055045;28;20108;-96
2022/12/02 02:05:29;;;;;;;6.20;4.10;;;;;;;16.74;36.95;102763.59;5039466;28;20053;-93
2022/12/02 02:07:56;;;;;;;5.70;3.78;;;;;;;16.71;36.96;102768.31;5053217;28;20454;-95
2022/12/02 02:10:23;;;;;;;5.13;3.50;;;;;;;16.70;37.07;102765.78;5037238;28;20025;-94
2022/12/02 02:12:52;;;;;;;5.63;3.90;;;;;;;16.74;37.12;102766.28;5053757;28;20120;-95
2022/12/02 02:15:18;;;;;;;5.30;3.67;;;;;;;16.73;37.04;102761.88;5053522;28;20101;-94
2022/12/02 02:17:44;;;;;;;4.68;3.60;;;;;;;16.70;36.88;102755.81;5053440;28;20016;-94
2022/12/02 02:20:14;;;;;;;6.55;4.28;;;;;;;16.71;37.02;102751.25;5036516;28;20021;-94
2022/12/02 02:22:44;;;;;;;5.85;3.47;;;;;;;16.74;36.91;102760.88;5053385;28;20523;-94
2022/12/02 02:25:12;;;;;;;6.40;3.95;;;;;;;16.70;37.02;102755.81;5037145;28;20444;-94
2022/12/02 02:27:38;;;;;;;7.72;3.67;;;;;;;16.72;36.99;102752.94;5036897;28;20028;-94
2022/12/02 02:30:05;;;;;;;4.50;3.28;;;;;;;16.69;37.07;102743.34;5054533;28;20071;-93
2022/12/02 02:32:30;;;;;;;5.32;3.95;;;;;;;16.76;37.19;102753.44;5036644;28;20082;-94
2022/12/02 02:34:56;;;;;;;6.15;4.22;;;;;;;16.75;37.02;102762.56;5036442;28;20559;-95
2022/12/02 02:37:21;;;;;;;5.05;3.80;;;;;;;16.76;37.02;102761.56;5036542;28;20070;-94
2022/12/02 02:39:47;;;;;;;6.40;4.10;;;;;;;16.75;37.12;102757.16;5036112;28;20035;-94
2022/12/02 02:42:13;;;;;;;6.32;3.67;;;;;;;16.69;37.07;102747.88;5052657;28;20499;-94
2022/12/02 02:44:38;;;;;;;6.32;4.20;;;;;;;16.75;37.06;102757.16;5052718;28;20052;-95
2022/12/02 02:47:04;;;;;;;6.32;4.40;;;;;;;16.75;37.20;102759.84;5035899;28;20104;-94
2022/12/02 02:49:30;;;;;;;5.55;4.20;;;;;;;16.72;37.32;102752.94;5054139;28;20047;-94
2022/12/02 02:51:55;;;;;;;5.05;3.83;;;;;;;16.71;37.00;102744.03;5052836;28;20623;-93
2022/12/02 02:54:21;;;;;;;7.03;4.85;;;;;;;16.69;37.20;102742.47;5053995;28;20508;-94
2022/12/02 02:56:47;;;;;;;5.57;3.90;;;;;;;16.73;36.89;102740.28;5036191;28;20077;-94
2022/12/02 02:59:13;;;;;;;5.93;3.83;;;;;;;16.73;37.11;102748.38;5052539;28;20028;-94
2022/12/02 03:01:39;;;;;;;5.93;4.20;;;;;;;16.73;37.11;102748.38;5052692;28;20111;-94
2022/12/02 03:04:09;;;;;;;7.15;4.70;;;;;;;16.73;37.01;102754.66;5035936;28;20119;-95
2022/12/02 03:06:35;;;;;;;7.50;3.92;;;;;;;16.69;36.95;102751.44;5036196;28;20028;-94
2022/12/02 03:09:04;;;;;;;5.15;3.50;;;;;;;16.74;37.05;102753.63;5035817;28;20372;-94
2022/12/02 03:11:32;;;;;;;6.47;4.53;;;;;;;16.73;37.04;102759.19;5052690;28;20112;-94
2022/12/02 03:13:57;;;;;;;8.07;4.57;;;;;;;16.70;36.93;102747.72;5052476;28;20029;-94
2022/12/02 03:16:23;;;;;;;6.00;4.10;;;;;;;16.70;37.09;102755.81;5052713;28;20048;-93
2022/12/02 03:18:49;;;;;;;6.05;4.30;;;;;;;16.71;36.93;102746.72;5036000;28;20380;-94
2022/12/02 03:21:15;;;;;;;6.38;4.32;;;;;;;16.70;37.15;102747.72;5052135;28;20033;-95
2022/12/02 03:23:41;;;;;;;6.82;4.55;;;;;;;16.69;37.08;102743.34;5052783;28;20443;-94
2022/12/02 03:26:07;;;;;;;5.75;4.15;;;;;;;16.70;37.05;102755.81;5035603;28;20033;-94
2022/12/02 03:28:32;;;;;;;6.68;4.75;;;;;;;16.70;37.07;102750.41;5035781;28;20036;-94
2022/12/02 03:30:58;;;;;;;6.65;4.00;;;;;;;16.71;36.92;102762.06;5035665;28;20025;-95
2022/12/02 03:33:24;;;;;;;5.93;4.45;;;;;;;16.68;37.11;102752.44;5035474;28;20021;-94
2022/12/02 03:35:49;;;;;;;7.03;4.68;;;;;;;16.71;37.10;102757.50;5035326;28;20041;-94
2022/12/02 03:38:15;;;;;;;6.90;4.32;;;;;;;16.67;37.14;102748.06;5051800;28;20035;-93
2022/12/02 03:40:41;;;;;;;6.82;4.45;;;;;;;16.69;37.17;102742.47;5051864;28;20025;-95
2022/12/02 03:43:06;;;;;;;5.95;4.00;;;;;;;16.67;37.13;102745.34;5052739;28;20035;-95
2022/12/02 03:45:41;;;;;;;6.57;4.55;;;;;;;16.68;36.95;102746.22;5018452;28;20403;-93
2022/12/02 03:48:07;;;;;;;6.00;4.53;;;;;;;16.66;37.11;102749.09;5051336;28;20024;-95
2022/12/02 03:50:33;;;;;;;6.18;4.53;;;;;;;16.67;37.10;102745.34;5051430;28;20479;-94
2022/12/02 03:52:58;;;;;;;6.30;4.43;;;;;;;16.70;36.96;102739.63;5051337;28;20512;-95
2022/12/02 03:55:24;;;;;;;6.30;4.35;;;;;;;16.68;37.10;102744.34;5052529;28;20094;-95
2022/12/02 03:57:50;;;;;;;6.32;4.35;;;;;;;16.68;37.09;102740.81;5051008;28;20052;-95
2022/12/02 04:00:16;;;;;;;7.57;4.47;;;;;;;16.69;37.10;102737.09;5034919;28;20227;-94
2022/12/02 04:02:41;;;;;;;5.30;4.10;;;;;;;16.70;37.11;102738.78;5034908;28;20551;-94
2022/12/02 04:05:07;;;;;;;6.63;4.30;;;;;;;16.68;37.17;102735.41;5051378;28;20566;-94
2022/12/02 04:07:33;;;;;;;7.22;4.30;;;;;;;16.71;36.99;102737.75;5034741;28;20028;-95
2022/12/02 04:09:58;;;;;;;7.18;4.93;;;;;;;16.68;36.96;102735.41;5052619;28;20552;-94
2022/12/02 04:12:24;;;;;;;7.30;4.35;;;;;;;16.72;37.16;102742.16;5051135;28;20415;-94
2022/12/02 04:14:50;;;;;;;6.10;4.38;;;;;;;16.66;37.05;102738.28;5052315;28;20025;-94
2022/12/02 04:17:16;;;;;;;7.15;4.72;;;;;;;16.64;36.99;102731.34;5034431;28;20427;-94
2022/12/02 04:19:41;;;;;;;6.97;4.45;;;;;;;16.68;37.09;102740.81;5050886;28;20051;-93
2022/12/02 04:22:07;;;;;;;6.93;4.80;;;;;;;16.60;36.92;102728.16;5034571;28;20406;-95
2022/12/02 04:24:32;;;;;;;10.60;4.75;;;;;;;16.67;37.03;102741.81;5051043;28;20029;-95
2022/12/02 04:26:58;;;;;;;5.45;4.05;;;;;;;16.66;37.14;102738.28;5034536;28;20107;-94
2022/12/02 04:29:24;;;;;;;6.57;4.50;;;;;;;16.63;37.12;102735.91;5034141;28;20039;-94
2022/12/02 04:31:49;;;;;;;6.22;4.38;;;;;;;16.62;37.01;102730.69;5050779;28;20542;-94
2022/12/02 04:34:15;;;;;;;8.02;4.55;;;;;;;16.70;36.99;102742.31;5050807;28;20456;-94
2022/12/02 04:36:41;;;;;;;6.40;4.70;;;;;;;16.59;37.11;102726.50;5050606;28;20049;-95
2022/12/02 04:39:06;;;;;;;6.45;4.35;;;;;;;16.63;36.98;102732.38;5033918;28;20392;-93
2022/12/02 04:41:32;;;;;;;6.90;4.53;;;;;;;16.63;37.00;102732.38;5050547;28;20029;-95
2022/12/02 04:43:58;;;;;;;5.95;4.35;;;;;;;16.64;37.00;102731.34;5050879;28;20029;-94
2022/12/02 04:46:23;;;;;;;6.28;4.68;;;;;;;16.61;37.01;102727.16;5034136;28;20130;-94
2022/12/02 04:48:49;;;;;;;7.18;4.78;;;;;;;16.62;36.99;102731.53;5034054;28;20480;-94
2022/12/02 04:51:14;;;;;;;7.40;4.72;;;;;;;16.65;36.99;102736.59;5051864;28;20104;-96
2022/12/02 04:53:40;;;;;;;6.38;4.18;;;;;;;16.62;36.93;102731.53;5051705;28;20095;-95
2022/12/02 04:56:06;;;;;;;5.70;4.15;;;;;;;16.63;37.06;102733.22;5050601;28;20066;-94
2022/12/02 04:58:32;;;;;;;6.72;4.40;;;;;;;16.63;37.04;102729.69;5017373;28;20028;-94
2022/12/02 05:00:57;;;;;;;8.18;4.47;;;;;;;16.63;37.09;102733.22;5017303;28;20020;-95
2022/12/02 05:03:23;;;;;;;5.90;3.90;;;;;;;16.62;37.00;102731.53;5051608;28;20100;-94
2022/12/02 05:05:48;;;;;;;7.00;4.55;;;;;;;16.63;36.96;102727.00;5017181;28;20028;-95
2022/12/02 05:08:14;;;;;;;6.95;4.80;;;;;;;16.63;37.14;102727.81;5051140;28;20021;-95
2022/12/02 05:10:40;;;;;;;6.07;4.43;;;;;;;16.64;37.17;102718.72;5049518;28;20102;-95
2022/12/02 05:13:05;;;;;;;6.05;4.47;;;;;;;16.66;37.14;102726.63;5049900;28;20051;-94
2022/12/02 05:15:31;;;;;;;6.60;4.50;;;;;;;16.62;36.94;102715.31;5049954;28;20055;-95
2022/12/02 05:17:57;;;;;;;7.28;4.55;;;;;;;16.68;37.17;102730.00;5050256;28;20056;-94
2022/12/02 05:20:22;;;;;;;6.18;4.40;;;;;;;16.70;36.96;102728.81;5034075;28;20487;-94
2022/12/02 05:22:48;;;;;;;6.35;4.30;;;;;;;16.68;37.06;102735.41;5050221;28;20017;-94
2022/12/02 05:25:14;;;;;;;6.32;4.30;;;;;;;16.64;37.10;102734.91;5017040;28;20031;-93
2022/12/02 05:27:39;;;;;;;6.78;4.30;;;;;;;16.67;36.93;102744.53;5050173;28;20029;-95
2022/12/02 05:30:06;;;;;;;6.45;4.28;;;;;;;16.65;37.08;102733.88;5050022;28;20025;-94
2022/12/02 05:32:32;;;;;;;6.65;4.30;;;;;;;16.71;37.01;102745.84;5050378;28;20033;-94
2022/12/02 05:34:57;;;;;;;5.72;4.30;;;;;;;16.69;36.94;102743.34;5047233;28;20069;-94
2022/12/02 05:37:23;;;;;;;6.85;4.50;;;;;;;16.70;36.88;102750.41;5013548;28;20090;-95
2022/12/02 05:39:49;;;;;;;5.88;4.07;;;;;;;16.71;37.00;102757.50;4997581;28;20032;-94
2022/12/02 05:42:14;;;;;;;6.53;4.25;;;;;;;16.70;36.81;102755.81;5013191;28;20018;-94
2022/12/02 05:44:42;;;;;;;6.82;4.63;;;;;;;16.70;36.88;102747.72;5013207;28;20041;-96
2022/12/02 05:47:12;;;;;;;6.38;4.18;;;;;;;16.70;36.99;102755.81;4980936;28;20079;-94
2022/12/02 05:49:38;;;;;;;4.47;3.45;;;;;;;16.69;37.00;102759.56;5030991;28;20049;-94
2022/12/02 05:52:32;;;;;;;6.85;4.57;;;;;;;16.70;36.96;102761.22;4996453;28;20036;-94
2022/12/02 05:55:14;;;;;;;7.45;3.97;;;;;;;16.70;36.96;102755.81;4994133;28;20033;-94
2022/12/02 05:57:40;;;;;;;5.68;4.15;;;;;;;16.69;37.19;102754.16;4981313;28;20059;-95
2022/12/02 06:00:08;;;;;;;6.60;4.28;;;;;;;16.73;36.94;102764.59;4997014;28;20444;-94
2022/12/02 06:02:49;;;;;;;7.72;4.57;;;;;;;16.73;36.99;102764.59;5031018;28;20056;-93
2022/12/02 06:05:22;;;;;;;6.15;4.35;;;;;;;16.73;37.02;102769.97;5013307;28;20025;-94
2022/12/02 06:07:49;;;;;;;5.57;3.50;;;;;;;16.65;36.87;102763.59;5013446;28;20110;-93
2022/12/02 06:10:17;;;;;;;4.72;3.78;;;;;;;16.74;37.06;102777.09;4981022;28;20021;-94
2022/12/02 06:12:43;;;;;;;6.13;4.20;;;;;;;16.67;37.03;102766.94;5013138;28;20029;-94
2022/12/02 06:15:12;;;;;;;5.13;3.92;;;;;;;16.68;36.96;102774.06;4980513;28;20067;-94
2022/12/02 06:17:38;;;;;;;5.22;3.92;;;;;;;16.69;36.97;102786.56;4996866;28;20025;-94
2022/12/02 06:20:04;;;;;;;6.60;4.30;;;;;;;16.65;36.88;102779.78;4997183;28;20039;-96
2022/12/02 06:22:31;;;;;;;6.80;4.22;;;;;;;16.65;36.97;102778.94;4984470;28;20063;-94
2022/12/02 06:24:58;;;;;;;6.95;4.53;;;;;;;16.66;36.99;102776.09;4984391;28;20112;-94
2022/12/02 06:27:24;;;;;;;5.78;4.13;;;;;;;16.71;36.88;102791.75;4984504;28;20061;-94
2022/12/02 06:29:53;;;;;;;6.53;4.13;;;;;;;16.67;36.91;102780.44;4984316;28;20481;-95
2022/12/02 06:32:20;;;;;;;5.47;4.00;;;;;;;16.70;36.86;102777.41;4984828;28;20431;-95
2022/12/02 06:34:50;;;;;;;6.53;4.03;;;;;;;16.69;36.81;102778.44;4984166;28;20460;-95
2022/12/02 06:37:22;;;;;;;5.18;3.85;;;;;;;16.70;36.82;102772.00;5000464;28;20040;-95
2022/12/02 06:39:50;;;;;;;6.18;4.10;;;;;;;16.70;36.91;102772.00;5000666;28;20037;-95
2022/12/02 06:42:32;;;;;;;7.30;4.10;;;;;;;16.74;36.84;102785.19;5000478;28;20037;-94
2022/12/02 06:45:13;;;;;;;6.82;4.28;;;;;;;16.73;36.87;102783.47;5000233;28;20026;-95
2022/12/02 06:47:41;;;;;;;6.18;4.07;;;;;;;16.73;36.82;102787.06;5016472;28;20032;-94
2022/12/02 06:50:06;;;;;;;5.97;4.00;;;;;;;16.73;36.80;102788.88;5016335;28;20092;-94
2022/12/02 06:52:41;;;;;;;5.85;3.83;;;;;;;16.70;37.11;102792.78;5016480;28;20037;-94
2022/12/02 06:55:31;;;;;;;5.95;3.58;;;;;;;16.71;36.92;102780.94;5000329;28;20472;-95
2022/12/02 06:58:00;;;;;;;5.03;3.65;;;;;;;16.72;36.77;102788.06;5000669;28;20029;-93
2022/12/02 07:00:26;;;;;;;6.85;4.32;;;;;;;16.69;36.97;102786.56;5000316;28;20515;-94
2022/12/02 07:02:51;;;;;;;4.50;3.58;;;;;;;16.68;36.93;102792.94;4984041;28;20156;-94
2022/12/02 07:05:18;;;;;;;5.57;4.22;;;;;;;16.70;36.86;102793.63;5000153;28;20555;-94
2022/12/02 07:07:44;;;;;;;5.20;4.10;;;;;;;16.74;36.67;102798.69;4983776;28;20419;-94
2022/12/02 07:10:33;;;;;;;5.30;3.90;;;;;;;16.74;36.76;102799.53;4983748;28;20072;-95
2022/12/02 07:13:04;;;;;;;4.57;3.70;;;;;;;16.69;36.87;102791.94;4999825;28;20438;-93
2022/12/02 07:15:34;;;;;;;6.60;3.75;;;;;;;16.71;36.84;102794.44;4983177;28;20026;-95
2022/12/02 07:18:20;;;;;;;5.70;4.13;;;;;;;16.77;36.84;102803.75;5000369;28;20036;-94
2022/12/02 07:20:46;;;;;;;4.75;3.70;;;;;;;16.73;36.89;102797.00;5015792;28;20030;-94
2022/12/02 07:23:19;;;;;;;5.20;3.72;;;;;;;16.74;36.71;102798.69;5000048;28;20029;-94
2022/12/02 07:25:49;;;;;;;6.18;3.83;;;;;;;16.70;36.82;102792.78;4999717;28;20025;-93
2022/12/02 07:28:35;;;;;;;5.78;3.83;;;;;;;16.74;36.82;102793.28;5000326;28;20022;-94
2022/12/02 07:31:20;;;;;;;4.45;3.50;;;;;;;16.75;36.80;102801.22;4983349;28;20036;-94
2022/12/02 07:33:46;;;;;;;7.38;4.07;;;;;;;16.73;36.87;102794.28;4998384;28;20033;-94
2022/12/02 07:36:11;;;;;;;5.35;3.80;;;;;;;16.68;36.98;102784.84;5039928;28;20065;-94
2022/12/02 07:38:37;;;;;;;5.68;3.75;;;;;;;16.72;36.94;102793.44;5018605;28;20112;-94
2022/12/02 07:41:03;;;;;;;4.88;3.40;;;;;;;16.70;36.86;102793.63;5018733;28;20083;-93
2022/12/02 07:43:30;;;;;;;5.22;3.90;;;;;;;16.73;36.78;102803.25;5018929;28;20021;-94
2022/12/02 07:45:55;;;;;;;6.65;3.92;;;;;;;16.73;36.83;102802.38;5035326;28;20033;-94
2022/12/02 07:48:21;;;;;;;5.60;3.95;;;;;;;16.75;36.82;102800.34;5018752;28;20454;-95
2022/12/02 07:50:46;;;;;;;6.20;4.18;;;;;;;16.75;36.57;102806.63;5035284;28;20052;-93
2022/12/02 07:53:12;;;;;;;6.03;4.10;;;;;;;16.75;36.90;102800.34;5018653;28;20115;-94
2022/12/02 07:55:38;;;;;;;4.80;3.33;;;;;;;16.75;36.74;102797.66;5051698;28;20171;-94
2022/12/02 07:58:03;;;;;;;6.40;4.15;;;;;;;16.72;37.03;102798.84;5018546;28;20507;-94
2022/12/02 08:00:29;;;;;;;5.13;3.85;;;;;;;16.73;36.80;102797.84;5035009;28;20033;-94
2022/12/02 08:02:55;;;;;;;4.82;3.45;;;;;;;16.75;36.86;102803.06;5018469;28;20078;-93
2022/12/02 08:05:22;;;;;;;5.45;3.83;;;;;;;16.75;36.84;102803.06;5018446;28;20102;-94
2022/12/02 08:07:47;;;;;;;5.72;4.10;;;;;;;16.74;36.85;102798.69;5034994;28;20506;-94
2022/12/02 08:10:13;;;;;;;5.35;3.60;;;;;;;16.74;36.85;102798.69;5018146;28;20029;-93
2022/12/02 08:12:39;;;;;;;6.03;3.97;;;;;;;16.75;36.77;102800.34;5034534;28;20444;-94
2022/12/02 08:15:08;;;;;;;5.75;4.15;;;;;;;16.74;36.72;102802.22;5018063;28;20029;-95
2022/12/02 08:17:34;;;;;;;3.97;3.58;;;;;;;16.73;36.60;102800.56;5034567;28;20024;-94
2022/12/02 08:19:59;;;;;;;6.20;3.85;;;;;;;16.72;36.99;102798.84;5018014;28;20033;-94
2022/12/02 08:22:25;;;;;;;5.05;3.65;;;;;;;16.75;36.78;102803.06;5018048;28;20388;-94
2022/12/02 08:24:51;;;;;;;4.60;3.42;;;;;;;16.74;36.72;102793.28;5034832;28;20418;-95
2022/12/02 08:27:16;;;;;;;5.78;3.55;;;;;;;16.76;36.82;102796.66;5034413;28;20111;-95
2022/12/02 08:29:42;;;;;;;6.15;3.70;;;;;;;16.75;36.74;102792.25;5017804;28;20124;-94
2022/12/02 08:32:08;;;;;;;6.00;3.95;;;;;;;16.74;36.57;102790.59;5034448;28;20066;-94
2022/12/02 08:34:34;;;;;;;5.10;3.75;;;;;;;16.77;36.94;102798.34;5033001;28;20387;-94
2022/12/02 08:37:03;;;;;;;4.43;3.42;;;;;;;16.76;36.79;102804.75;4979956;28;20038;-94
2022/12/02 08:39:29;;;;;;;5.30;3.72;;;;;;;16.75;36.79;102795.81;4998398;28;20076;-94
2022/12/02 08:41:54;;;;;;;5.85;3.75;;;;;;;16.74;36.84;102788.72;4996706;28;20132;-94
2022/12/02 08:44:20;;;;;;;5.38;3.70;;;;;;;16.76;36.75;102791.25;4980894;28;20029;-94
2022/12/02 08:46:45;;;;;;;4.40;3.60;;;;;;;16.76;36.85;102788.56;4981286;28;20432;-94
2022/12/02 08:49:11;;;;;;;5.88;3.70;;;;;;;16.73;36.82;102789.75;4997503;28;20480;-94
2022/12/02 08:51:37;;;;;;;6.00;3.65;;;;;;;16.74;36.72;102788.72;4998130;28;20063;-93
2022/12/02 08:54:02;;;;;;;4.80;3.30;;;;;;;16.75;36.90;102797.66;4981435;28;20524;-94
2022/12/02 08:56:28;;;;;;;4.95;3.45;;;;;;;16.78;36.82;102800.03;4981292;28;20133;-94
2022/12/02 08:58:54;;;;;;;5.72;4.07;;;;;;;16.75;36.80;102794.94;4997836;28;20096;-95
2022/12/02 09:01:19;;;;;;;5.10;3.42;;;;;;;16.75;36.71;102797.66;4981409;28;20037;-95
2022/12/02 09:03:45;;;;;;;4.90;3.58;;;;;;;16.70;36.64;102790.09;4981376;28;20033;-93
2022/12/02 09:06:11;;;;;;;6.15;4.05;;;;;;;16.75;36.60;102798.53;4997262;28;20037;-94
2022/12/02 09:08:39;;;;;;;5.13;3.47;;;;;;;16.74;36.84;102796.81;4997271;28;20164;-94
2022/12/02 09:11:05;;;;;;;5.82;3.47;;;;;;;16.74;36.78;102793.28;4981037;28;20044;-95
2022/12/02 09:13:31;;;;;;;6.40;3.97;;;;;;;16.74;36.74;102794.13;4998011;28;20033;-94
2022/12/02 09:15:56;;;;;;;5.10;3.70;;;;;;;16.76;36.70;102799.34;4997772;28;20040;-94
2022/12/02 09:18:23;;;;;;;4.88;3.67;;;;;;;16.71;36.73;102795.31;4981236;28;20527;-94
2022/12/02 09:20:49;;;;;;;5.75;3.80;;;;;;;16.75;36.67;102794.94;4998267;28;20025;-94
2022/12/02 09:23:15;;;;;;;5.75;3.60;;;;;;;16.70;36.87;102793.63;4981289;28;20052;-94
2022/12/02 09:25:44;;;;;;;5.28;3.78;;;;;;;16.76;36.74;102797.50;4981450;28;20087;-94
2022/12/02 09:28:12;;;;;;;6.22;3.67;;;;;;;16.70;36.50;102784.69;4981427;28;20550;-95
2022/12/02 09:30:38;;;;;;;5.35;3.95;;;;;;;16.74;36.84;102794.13;4981221;28;20033;-95
2022/12/02 09:33:04;;;;;;;5.53;3.78;;;;;;;16.70;37.07;102790.91;4997898;28;20432;-94
2022/12/02 09:35:30;;;;;;;4.85;3.33;;;;;;;16.69;36.77;102791.94;4994274;28;20044;-94
2022/12/02 09:37:55;;;;;;;3.92;3.22;;;;;;;16.79;36.62;102796.31;5033730;28;20119;-94
2022/12/02 09:40:21;;;;;;;5.72;3.80;;;;;;;16.78;36.70;102800.88;5033623;28;20040;-94
2022/12/02 09:42:47;;;;;;;6.88;4.00;;;;;;;16.79;36.72;102807.97;5017256;28;20179;-94
2022/12/02 09:45:12;;;;;;;6.13;3.80;;;;;;;16.78;36.76;102800.03;5033686;28;20030;-95
2022/12/02 09:47:38;;;;;;;6.30;4.30;;;;;;;16.78;36.67;102800.03;5033659;28;20151;-94
2022/12/02 09:50:05;;;;;;;5.05;3.47;;;;;;;16.78;36.88;102800.03;5033608;28;20044;-95
2022/12/02 09:52:30;;;;;;;5.82;4.00;;;;;;;16.77;36.55;102796.50;5016954;28;20029;-94
2022/12/02 09:54:57;;;;;;;5.72;3.72;;;;;;;16.78;36.66;102797.31;5033679;28;20492;-93
2022/12/02 09:57:29;;;;;;;5.18;3.60;;;;;;;16.79;36.72;102797.16;5020641;28;20476;-94
2022/12/02 09:59:58;;;;;;;5.85;3.78;;;;;;;16.75;36.74;102784.16;5037268;28;20037;-94
2022/12/02 10:02:40;;;;;;;5.75;3.30;;;;;;;16.79;36.64;102796.31;5020867;28;20120;-94
2022/12/02 10:05:28;;;;;;;5.80;3.40;;;;;;;16.81;36.63;102794.28;5037274;28;20391;-94
2022/12/02 10:07:55;;;;;;;5.13;3.58;;;;;;;16.79;36.67;102785.53;5036990;28;20064;-93
2022/12/02 10:10:24;;;;;;;4.65;3.47;;;;;;;16.78;36.60;102790.09;5020544;28;20107;-95
2022/12/02 10:12:50;;;;;;;5.18;3.40;;;;;;;16.81;36.59;102794.28;5020889;28;20029;-94
2022/12/02 10:15:19;;;;;;;9.32;3.53;;;;;;;16.78;36.76;102783.81;5020351;28;20024;-94
2022/12/02 10:17:44;;;;;;;5.93;3.72;;;;;;;16.79;36.71;102785.53;5020775;28;20032;-95
2022/12/02 10:20:25;;;;;;;4.78;3.20;;;;;;;16.77;36.58;102782.16;5036633;28;20121;-93
2022/12/02 10:23:14;;;;;;;3.95;3.17;;;;;;;16.82;36.58;102787.88;5021344;28;20451;-94
2022/12/02 10:26:04;;;;;;;4.65;3.60;;;;;;;16.78;36.75;102783.81;5036550;28;20055;-95
2022/12/02 10:28:31;;;;;;;4.70;3.45;;;;;;;16.79;36.50;102780.94;5052436;28;20044;-94
2022/12/02 10:31:13;;;;;;;4.53;3.42;;;;;;;16.78;36.67;102778.41;5036694;28;20035;-94
2022/12/02 10:33:41;;;;;;;6.07;3.80;;;;;;;16.80;36.65;102777.25;5020426;28;20029;-94
2022/12/02 10:36:07;;;;;;;6.68;3.80;;;;;;;16.80;36.57;102776.38;5020097;28;20044;-94
2022/12/02 10:38:41;;;;;;;5.93;3.75;;;;;;;16.79;36.50;102774.72;5036841;28;20071;-94
2022/12/02 10:41:23;;;;;;;4.57;3.45;;;;;;;16.81;36.52;102775.38;5036609;28;20107;-94
2022/12/02 10:43:52;;;;;;;4.68;3.47;;;;;;;16.81;36.61;102770.81;5036850;28;20025;-94
2022/12/02 10:46:18;;;;;;;4.43;3.35;;;;;;;16.82;36.58;102772.50;5052989;28;20056;-94
2022/12/02 10:48:44;;;;;;;5.50;3.50;;;;;;;16.81;36.56;102773.50;5036391;28;20028;-96
2022/12/02 10:51:20;;;;;;;5.47;3.70;;;;;;;16.80;36.66;102766.44;5019555;28;20546;-95
2022/12/02 10:53:49;;;;;;;4.68;3.60;;;;;;;16.83;36.48;102766.13;5019731;28;20084;-95
2022/12/02 10:56:19;;;;;;;4.32;3.15;;;;;;;16.82;36.73;102760.88;5036541;28;20501;-93
2022/12/02 10:58:45;;;;;;;6.32;3.70;;;;;;;16.82;36.58;102759.00;5019512;28;20033;-94
2022/12/02 11:01:11;;;;;;;4.75;2.97;;;;;;;16.81;36.57;102759.19;5019326;28;20076;-95
2022/12/02 11:03:37;;;;;;;5.57;3.47;;;;;;;16.84;36.50;102758.88;5019477;28;20071;-95
2022/12/02 11:06:21;;;;;;;4.45;3.45;;;;;;;16.79;36.47;102747.72;5036050;28;20021;-95
2022/12/02 11:08:47;;;;;;;4.57;3.40;;;;;;;16.83;36.43;102749.03;5036053;28;20025;-93
2022/12/02 11:11:34;;;;;;;5.38;3.38;;;;;;;16.78;36.55;102752.28;5036122;28;20025;-94
2022/12/02 11:14:02;;;;;;;5.10;3.30;;;;;;;16.76;36.59;102743.47;5021838;28;20091;-94
2022/12/02 11:16:27;;;;;;;4.90;3.13;;;;;;;16.83;36.55;102749.03;5036045;28;20025;-95
2022/12/02 11:18:57;;;;;;;5.38;3.47;;;;;;;16.78;36.51;102746.88;5053749;28;20559;-94
2022/12/02 11:21:26;;;;;;;4.68;3.42;;;;;;;16.85;36.33;102749.75;5019296;28;20155;-95
2022/12/02 11:24:21;;;;;;;4.75;3.15;;;;;;;16.84;36.41;102742.66;5052268;28;20021;-94
2022/12/02 11:26:58;;;;;;;;;;;;;;;16.85;36.53;102741.63;5041617;28;20048;-94
2022/12/02 11:30:03;;;;;;;4.47;3.22;;;;;;;16.85;36.48;102747.03;5053229;28;19919;-94
2022/12/02 11:32:28;;;;;;;4.20;3.20;;;;;;;16.85;36.49;102738.94;5015011;28;20391;-93